Time;durP1;ratioP1;P1;durP2;ratioP2;P2;SDS_P1;SDS_P2;PMS_P1;PMS_P2;Temp;Humidity;BMP_temperature;BMP_pressure;BME280_temperature;BME280_humidity;BME280_pressure;Samples;Min_cycle;Max_cycle;Signal;HPM_P1;HPM_P2
2021/12/23 00:00:07;;;;;;;;;225.50;198.75;2.40;63.00;;;;;;5054896;28;8807;-71
2021/12/23 00:02:32;;;;;;;;;223.25;208.25;2.50;63.10;;;;;;5055122;28;8876;-69
2021/12/23 00:04:58;;;;;;;;;177.00;148.75;2.30;63.50;;;;;;5054857;28;9506;-69
2021/12/23 00:07:24;;;;;;;;;233.00;207.75;2.40;63.30;;;;;;5054602;28;8819;-70
2021/12/23 00:10:09;;;;;;;;;220.50;205.50;2.60;62.70;;;;;;5054758;28;8790;-70
2021/12/23 00:12:41;;;;;;;;;204.00;183.25;2.60;62.70;;;;;;5057028;28;8785;-70
2021/12/23 00:15:16;;;;;;;;;188.00;165.50;2.70;62.30;;;;;;5074349;28;8784;-70
2021/12/23 00:25:35;;;;;;;;;193.00;177.00;2.30;64.40;;;;;;5074654;28;8749;-69
2021/12/23 00:28:01;;;;;;;;;174.75;165.50;2.10;65.40;;;;;;5074531;28;8775;-69
2021/12/23 00:30:27;;;;;;;;;196.00;183.00;2.40;63.90;;;;;;5074500;28;8875;-70
2021/12/23 00:32:55;;;;;;;;;199.75;182.50;2.30;63.80;;;;;;5074723;28;8774;-69
2021/12/23 00:35:21;;;;;;;;;221.75;196.50;2.30;64.10;;;;;;5074734;28;9423;-69
2021/12/23 00:37:49;;;;;;;;;177.75;169.50;2.10;64.70;;;;;;5072650;28;8847;-70
2021/12/23 00:40:19;;;;;;;;;191.75;168.25;2.00;65.20;;;;;;5074354;28;8838;-70
2021/12/23 00:42:44;;;;;;;;;203.00;177.75;2.00;65.00;;;;;;5074376;28;8749;-70
2021/12/23 00:45:10;;;;;;;;;193.25;172.75;1.70;66.10;;;;;;5074333;28;8843;-70
2021/12/23 00:47:36;;;;;;;;;195.75;176.00;1.80;66.40;;;;;;5074315;28;8784;-70
2021/12/23 00:50:03;;;;;;;;;182.50;163.00;2.00;65.20;;;;;;5073412;28;8796;-69
2021/12/23 00:52:35;;;;;;;;;187.50;170.00;2.30;63.60;;;;;;5074390;28;8760;-71
2021/12/23 00:55:02;;;;;;;;;180.25;162.00;2.30;63.20;;;;;;5074294;28;8767;-70
2021/12/23 00:57:29;;;;;;;;;181.00;165.50;2.40;62.80;;;;;;5074152;28;8887;-69
2021/12/23 00:59:57;;;;;;;;;177.00;158.75;2.40;62.50;;;;;;5074345;28;8823;-70
2021/12/23 01:02:27;;;;;;;;;177.00;162.25;2.50;61.90;;;;;;5074192;28;8744;-70
2021/12/23 01:04:52;;;;;;;;;173.25;152.75;2.40;61.90;;;;;;5074199;28;8756;-70
2021/12/23 01:07:19;;;;;;;;;164.50;143.50;2.40;61.80;;;;;;5074119;28;8800;-70
2021/12/23 01:09:45;;;;;;;;;163.25;151.75;2.40;62.00;;;;;;5074100;28;8876;-70
2021/12/23 01:12:13;;;;;;;;;144.25;139.25;2.10;63.40;;;;;;5074027;28;8768;-70
2021/12/23 01:19:52;;;;;;;;;170.25;153.50;2.10;63.40;;;;;;5074266;28;8816;-70
2021/12/23 01:22:19;;;;;;;;;147.00;140.25;1.60;65.10;;;;;;5074288;28;8764;-70
2021/12/23 01:24:46;;;;;;;;;154.25;140.50;1.60;65.80;;;;;;5074008;28;8760;-70
2021/12/23 01:27:12;;;;;;;;;140.25;134.75;1.90;65.00;;;;;;5073886;28;8761;-70
2021/12/23 01:29:38;;;;;;;;;144.00;130.75;1.90;64.50;;;;;;5073936;28;8790;-70
2021/12/23 01:32:06;;;;;;;;;141.00;131.25;1.90;64.40;;;;;;5074137;28;8765;-70
2021/12/23 01:34:35;;;;;;;;;156.75;130.50;1.60;65.00;;;;;;5073831;28;8779;-69
2021/12/23 01:37:03;;;;;;;;;132.00;128.50;1.70;65.30;;;;;;5073903;28;8795;-69
2021/12/23 01:39:29;;;;;;;;;154.00;132.25;2.00;64.30;;;;;;5073749;28;8784;-69
2021/12/23 01:41:55;;;;;;;;;134.50;116.50;2.10;63.60;;;;;;5074065;28;8765;-68
2021/12/23 01:44:21;;;;;;;;;142.25;138.50;1.90;63.90;;;;;;5073712;28;8773;-70
2021/12/23 01:46:47;;;;;;;;;168.00;155.25;1.80;64.40;;;;;;5073753;28;8792;-68
2021/12/23 01:49:13;;;;;;;;;132.75;130.50;2.00;63.20;;;;;;5073788;28;8792;-70
2021/12/23 01:51:39;;;;;;;;;157.25;141.25;1.90;63.50;;;;;;5073702;28;8780;-68
2021/12/23 01:54:05;;;;;;;;;163.25;160.25;2.10;62.60;;;;;;5073640;28;8769;-69
2021/12/23 01:56:30;;;;;;;;;172.25;166.75;1.90;63.00;;;;;;5073659;28;8772;-68
2021/12/23 01:58:56;;;;;;;;;191.50;171.25;1.50;65.00;;;;;;5073608;28;8799;-68
2021/12/23 02:01:22;;;;;;;;;185.50;173.75;1.30;66.00;;;;;;5073559;28;8808;-70
2021/12/23 02:03:48;;;;;;;;;152.00;140.50;1.30;65.90;;;;;;5075962;28;8795;-70
2021/12/23 02:06:14;;;;;;;;;196.75;185.25;1.50;65.50;;;;;;5077470;28;8760;-71
2021/12/23 02:08:40;;;;;;;;;211.50;186.50;1.50;64.80;;;;;;5076995;28;8788;-71
2021/12/23 02:11:08;;;;;;;;;189.25;176.50;1.40;64.90;;;;;;5077334;28;8776;-71
2021/12/23 02:13:35;;;;;;;;;201.50;180.50;1.50;64.40;;;;;;5077378;28;8756;-70
2021/12/23 02:16:02;;;;;;;;;160.50;154.50;1.40;64.40;;;;;;5076910;28;8784;-71
2021/12/23 02:18:28;;;;;;;;;185.00;178.50;1.40;64.60;;;;;;5077114;28;8779;-70
2021/12/23 02:20:56;;;;;;;;;190.50;174.00;1.10;65.80;;;;;;5076773;28;8800;-70
2021/12/23 02:23:23;;;;;;;;;173.00;168.00;1.10;65.90;;;;;;5067682;28;8793;-71
2021/12/23 02:25:49;;;;;;;;;189.75;170.75;1.00;66.10;;;;;;5058107;28;8767;-70
2021/12/23 02:28:16;;;;;;;;;198.00;173.25;0.90;66.70;;;;;;5056750;28;9382;-68
2021/12/23 02:30:42;;;;;;;;;193.75;175.00;0.80;67.50;;;;;;5056873;28;8871;-71
2021/12/23 02:33:08;;;;;;;;;206.50;191.75;0.70;68.30;;;;;;5056618;28;8755;-70
2021/12/23 02:35:35;;;;;;;;;199.75;189.75;0.50;68.80;;;;;;5056580;28;8770;-70
2021/12/23 02:38:02;;;;;;;;;207.75;186.75;0.60;68.50;;;;;;5056730;28;8874;-70
2021/12/23 02:40:31;;;;;;;;;200.75;182.75;0.60;68.30;;;;;;5056651;28;8841;-70
2021/12/23 02:43:14;;;;;;;;;185.50;170.75;0.50;68.40;;;;;;5056406;28;8849;-71
2021/12/23 02:45:41;;;;;;;;;180.50;166.00;1.00;66.90;;;;;;5056464;28;8837;-69
2021/12/23 02:48:35;;;;;;;;;168.25;155.75;1.20;64.40;;;;;;5056339;28;8759;-71
2021/12/23 02:51:08;;;;;;;;;173.00;154.75;1.20;64.20;;;;;;5056083;28;8787;-70
2021/12/23 02:53:35;;;;;;;;;167.25;150.25;1.50;63.30;;;;;;5056334;28;9394;-70
2021/12/23 02:56:03;;;;;;;;;172.00;155.25;1.70;62.30;;;;;;5056419;28;8771;-69
2021/12/23 02:58:29;;;;;;;;;148.75;147.00;1.80;61.70;;;;;;5056441;28;8786;-70
2021/12/23 03:00:57;;;;;;;;;193.50;173.75;1.80;61.50;;;;;;5055972;28;8799;-70
2021/12/23 03:03:23;;;;;;;;;172.25;157.50;1.70;61.60;;;;;;5056087;28;8829;-70
2021/12/23 03:05:55;;;;;;;;;198.50;176.25;1.40;62.70;;;;;;5056254;28;8782;-70
2021/12/23 03:08:37;;;;;;;;;176.75;173.25;1.10;63.50;;;;;;5055858;28;8802;-69
2021/12/23 03:11:05;;;;;;;;;185.25;159.75;1.20;63.90;;;;;;5056008;28;8759;-68
2021/12/23 03:13:32;;;;;;;;;198.75;173.50;1.50;62.80;;;;;;5055680;28;8779;-70
2021/12/23 03:15:58;;;;;;;;;166.25;159.75;1.50;61.80;;;;;;5055309;28;8897;-70
2021/12/23 03:18:24;;;;;;;;;158.25;155.25;1.60;62.20;;;;;;5055857;28;8779;-70
2021/12/23 03:20:50;;;;;;;;;185.00;163.25;0.80;64.30;;;;;;5055656;28;8799;-69
2021/12/23 03:23:16;;;;;;;;;155.25;150.75;0.90;64.30;;;;;;5055901;28;8791;-69
2021/12/23 03:25:42;;;;;;;;;155.75;146.25;1.20;63.50;;;;;;5055818;28;8860;-70
2021/12/23 03:28:08;;;;;;;;;144.75;144.00;1.20;63.10;;;;;;5055687;28;8829;-69
2021/12/23 03:30:34;;;;;;;;;162.75;148.25;1.50;62.40;;;;;;5055775;28;8935;-70
2021/12/23 03:33:00;;;;;;;;;155.00;145.75;1.70;61.40;;;;;;5055483;28;8759;-69
2021/12/23 03:35:25;;;;;;;;;154.50;150.25;1.70;61.20;;;;;;5055483;28;8798;-69
2021/12/23 03:37:53;;;;;;;;;164.00;159.00;1.60;61.00;;;;;;5055645;28;8767;-69
2021/12/23 03:40:19;;;;;;;;;160.00;154.25;1.70;61.00;;;;;;5055361;28;8815;-69
2021/12/23 03:42:45;;;;;;;;;175.75;156.50;1.70;60.90;;;;;;5055575;28;8859;-70
2021/12/23 03:45:11;;;;;;;;;170.75;161.50;1.80;60.60;;;;;;5054215;28;8807;-69
2021/12/23 03:47:37;;;;;;;;;164.75;148.50;1.80;60.70;;;;;;5055446;28;8799;-70
2021/12/23 03:50:06;;;;;;;;;148.75;146.75;1.40;61.90;;;;;;5055509;28;8799;-69
2021/12/23 03:52:31;;;;;;;;;146.25;136.25;1.30;62.20;;;;;;5055349;28;8762;-69
2021/12/23 03:54:57;;;;;;;;;151.50;145.75;1.50;61.80;;;;;;5055343;28;8771;-70
2021/12/23 03:57:23;;;;;;;;;158.50;150.75;1.50;61.70;;;;;;5055021;28;8743;-69
2021/12/23 03:59:49;;;;;;;;;136.75;129.25;1.20;62.20;;;;;;5054891;28;8806;-69
2021/12/23 04:02:15;;;;;;;;;129.25;123.75;1.20;62.90;;;;;;5055190;28;8790;-69
2021/12/23 04:04:41;;;;;;;;;157.75;140.25;1.30;62.50;;;;;;5054926;28;8763;-69
2021/12/23 04:07:07;;;;;;;;;134.00;126.00;1.40;62.70;;;;;;5054870;28;8880;-69
2021/12/23 04:09:33;;;;;;;;;137.75;131.00;1.50;61.90;;;;;;5054801;28;8763;-69
2021/12/23 04:11:59;;;;;;;;;128.75;125.00;1.30;62.10;;;;;;5055024;28;8874;-69
2021/12/23 04:14:25;;;;;;;;;138.75;124.75;1.20;62.60;;;;;;5054936;28;9540;-69
2021/12/23 04:16:51;;;;;;;;;146.25;139.00;1.30;62.40;;;;;;5054922;28;8763;-68
2021/12/23 04:19:17;;;;;;;;;131.00;123.50;1.20;62.20;;;;;;5054681;28;8819;-69
2021/12/23 04:21:43;;;;;;;;;134.00;130.25;1.20;62.60;;;;;;5053642;28;8853;-69
2021/12/23 04:24:10;;;;;;;;;134.75;132.25;1.00;63.00;;;;;;5054688;28;8766;-70
2021/12/23 04:26:38;;;;;;;;;136.75;132.25;1.20;63.00;;;;;;5054455;28;8901;-69
2021/12/23 04:29:05;;;;;;;;;126.25;116.25;1.20;62.50;;;;;;5054657;28;8858;-69
2021/12/23 04:31:32;;;;;;;;;132.25;125.00;1.40;62.00;;;;;;5054731;28;8774;-70
2021/12/23 04:33:58;;;;;;;;;133.75;126.00;1.50;61.50;;;;;;5054714;28;8759;-70
2021/12/23 04:36:27;;;;;;;;;140.50;131.25;1.50;61.10;;;;;;5054469;28;8770;-69
2021/12/23 04:38:53;;;;;;;;;143.00;139.50;1.40;61.50;;;;;;5057370;28;8779;-70
2021/12/23 04:41:20;;;;;;;;;132.75;132.00;1.30;61.70;;;;;;5063895;28;8804;-69
2021/12/23 04:43:46;;;;;;;;;150.75;144.25;1.30;61.70;;;;;;5059025;28;8775;-70
2021/12/23 04:46:12;;;;;;;;;150.00;145.50;1.50;61.40;;;;;;5054496;28;8791;-69
2021/12/23 04:48:38;;;;;;;;;150.75;143.75;1.70;60.10;;;;;;5054248;28;8902;-69
2021/12/23 04:51:04;;;;;;;;;149.75;142.50;1.60;60.30;;;;;;5054333;28;8767;-70
2021/12/23 04:53:30;;;;;;;;;136.75;134.75;1.50;60.70;;;;;;5054303;28;8863;-69
2021/12/23 04:55:56;;;;;;;;;132.50;126.75;1.40;61.20;;;;;;5054253;28;8888;-70
2021/12/23 04:58:23;;;;;;;;;124.50;121.50;1.10;62.00;;;;;;5054421;28;9468;-69
2021/12/23 05:00:51;;;;;;;;;135.50;130.25;0.90;62.90;;;;;;5053073;28;9449;-69
2021/12/23 05:03:19;;;;;;;;;132.00;127.75;0.80;63.50;;;;;;5054403;28;8778;-69
2021/12/23 05:05:46;;;;;;;;;143.00;139.25;0.90;63.50;;;;;;5054178;28;8755;-69
2021/12/23 05:08:13;;;;;;;;;136.00;128.00;1.00;63.40;;;;;;5053930;28;8821;-69
2021/12/23 05:10:40;;;;;;;;;99.75;76.25;1.20;62.30;;;;;;5054082;28;8783;-70
2021/12/23 05:13:06;;;;;;;;;129.75;127.25;1.20;62.30;;;;;;5054300;28;9510;-70
2021/12/23 05:15:32;;;;;;;;;134.50;130.00;1.20;62.00;;;;;;5054095;28;8798;-69
2021/12/23 05:17:58;;;;;;;;;140.50;127.00;1.20;62.00;;;;;;5054094;28;8794;-70
2021/12/23 05:20:26;;;;;;;;;124.50;117.75;1.00;62.60;;;;;;5054309;28;8849;-69
2021/12/23 05:22:51;;;;;;;;;166.00;144.25;1.10;62.90;;;;;;5054188;28;9480;-70
2021/12/23 05:25:18;;;;;;;;;146.25;132.50;1.10;62.50;;;;;;5054212;28;8782;-69
2021/12/23 05:27:45;;;;;;;;;131.25;115.75;1.00;62.90;;;;;;5053967;28;8759;-69
2021/12/23 05:30:14;;;;;;;;;136.00;126.00;1.10;62.60;;;;;;5053871;28;8775;-70
2021/12/23 05:32:43;;;;;;;;;146.00;139.50;1.20;62.10;;;;;;5053863;28;8763;-70
2021/12/23 05:35:12;;;;;;;;;129.75;120.50;1.20;61.80;;;;;;5054158;28;8755;-69
2021/12/23 05:37:38;;;;;;;;;124.25;123.00;1.40;61.60;;;;;;5054636;28;8763;-69
2021/12/23 05:40:05;;;;;;;;;136.75;132.00;1.40;61.20;;;;;;5067452;28;8820;-69
2021/12/23 05:42:31;;;;;;;;;129.50;128.50;1.20;61.80;;;;;;5064482;28;8775;-69
2021/12/23 05:44:57;;;;;;;;;153.00;132.25;1.10;62.20;;;;;;5066718;28;8777;-69
2021/12/23 05:47:23;;;;;;;;;126.50;113.25;1.30;61.90;;;;;;5072375;28;8879;-69
2021/12/23 05:49:49;;;;;;;;;147.75;143.50;1.30;61.80;;;;;;5070883;28;8792;-69
2021/12/23 05:52:14;;;;;;;;;141.50;139.00;1.50;61.20;;;;;;5068635;28;8753;-69
2021/12/23 05:54:40;;;;;;;;;136.00;131.25;1.30;62.00;;;;;;5058616;28;8825;-69
2021/12/23 05:57:06;;;;;;;;;141.25;134.00;1.10;62.60;;;;;;5057284;28;8811;-69
2021/12/23 05:59:34;;;;;;;;;139.75;135.00;1.00;63.10;;;;;;5064717;28;9560;-69
2021/12/23 06:02:01;;;;;;;;;159.25;150.75;0.70;63.80;;;;;;5077424;28;8791;-67
2021/12/23 06:04:27;;;;;;;;;145.75;142.00;0.80;63.60;;;;;;5073626;28;8787;-67
2021/12/23 06:06:53;;;;;;;;;163.75;160.00;0.60;64.40;;;;;;5056873;28;8809;-67
2021/12/23 06:09:19;;;;;;;;;170.50;160.75;0.50;65.00;;;;;;5057184;28;8885;-68
2021/12/23 06:11:45;;;;;;;;;179.25;166.00;0.60;64.50;;;;;;5057072;28;9791;-67
2021/12/23 06:14:11;;;;;;;;;166.75;162.75;0.90;63.60;;;;;;5057259;28;8767;-67
2021/12/23 06:16:36;;;;;;;;;176.25;161.50;1.00;62.90;;;;;;5056934;28;8782;-67
2021/12/23 06:19:02;;;;;;;;;182.00;168.75;1.20;62.20;;;;;;5056705;28;8787;-66
2021/12/23 06:21:30;;;;;;;;;181.50;168.25;0.80;63.10;;;;;;5056748;28;8806;-66
2021/12/23 06:23:57;;;;;;;;;180.25;168.00;0.80;63.20;;;;;;5057040;28;8775;-66
2021/12/23 06:26:23;;;;;;;;;187.25;173.75;0.70;63.60;;;;;;5056790;28;8755;-66
2021/12/23 06:28:48;;;;;;;;;173.75;164.25;0.50;64.60;;;;;;5056743;28;8755;-66
2021/12/23 06:31:15;;;;;;;;;198.25;178.00;0.70;63.80;;;;;;5056607;28;8791;-66
2021/12/23 06:33:40;;;;;;;;;170.75;166.25;1.00;63.20;;;;;;5056713;28;8836;-66
2021/12/23 06:36:06;;;;;;;;;168.50;145.50;1.00;62.80;;;;;;5056681;28;8779;-67
2021/12/23 06:38:32;;;;;;;;;174.00;166.75;1.00;62.30;;;;;;5056688;28;8793;-66
2021/12/23 06:40:59;;;;;;;;;154.75;150.00;1.00;62.40;;;;;;5056359;28;8867;-66
2021/12/23 06:43:24;;;;;;;;;168.50;159.25;0.70;63.20;;;;;;5056231;28;8798;-66
2021/12/23 06:45:50;;;;;;;;;175.00;154.00;0.70;63.60;;;;;;5056444;28;8860;-66
2021/12/23 06:48:16;;;;;;;;;131.75;129.25;0.40;64.50;;;;;;5055853;28;9473;-66
2021/12/23 06:50:42;;;;;;;;;168.50;160.00;0.50;64.60;;;;;;5056115;28;8755;-66
2021/12/23 06:53:08;;;;;;;;;145.75;140.50;0.50;64.80;;;;;;5056329;28;8774;-66
2021/12/23 06:55:35;;;;;;;;;156.50;151.75;0.70;63.50;;;;;;5055931;28;8835;-67
2021/12/23 06:58:00;;;;;;;;;152.25;147.50;0.80;63.60;;;;;;5056225;28;9686;-69
2021/12/23 07:00:28;;;;;;;;;155.50;149.00;0.80;63.40;;;;;;5056055;28;8941;-68
2021/12/23 07:02:55;;;;;;;;;169.50;164.25;0.60;64.20;;;;;;5056014;28;9398;-69
2021/12/23 07:05:22;;;;;;;;;182.50;160.75;0.80;63.90;;;;;;5056024;28;8964;-69
2021/12/23 07:10:19;;;;;;;;;190.25;169.00;1.10;62.50;;;;;;5055922;28;8775;-69
2021/12/23 07:12:45;;;;;;;;;178.25;157.25;1.10;62.60;;;;;;5055796;28;8870;-69
2021/12/23 07:15:11;;;;;;;;;190.75;168.00;1.10;62.70;;;;;;5055850;28;8910;-69
2021/12/23 07:17:38;;;;;;;;;169.00;157.75;1.10;63.10;;;;;;5055896;28;8793;-69
2021/12/23 07:20:04;;;;;;;;;164.75;149.25;1.20;62.60;;;;;;5056099;28;8818;-68
2021/12/23 07:22:30;;;;;;;;;162.00;158.00;1.10;63.30;;;;;;5055832;28;8743;-69
2021/12/23 07:24:55;;;;;;;;;171.00;155.75;1.00;63.70;;;;;;5055889;28;8869;-69
2021/12/23 07:27:22;;;;;;;;;137.75;124.50;0.90;64.70;;;;;;5055685;28;9275;-69
2021/12/23 07:29:48;;;;;;;;;155.75;136.50;0.90;64.40;;;;;;5055582;28;8825;-69
2021/12/23 07:32:14;;;;;;;;;152.50;135.75;1.20;63.30;;;;;;5055496;28;8763;-69
2021/12/23 07:34:42;;;;;;;;;160.25;142.75;1.40;63.00;;;;;;5069952;28;9532;-68
2021/12/23 07:37:09;;;;;;;;;172.25;153.25;1.40;62.90;;;;;;5074916;28;9683;-67
2021/12/23 07:39:37;;;;;;;;;142.25;138.75;1.40;63.20;;;;;;5074712;28;8796;-68
2021/12/23 07:42:04;;;;;;;;;150.75;134.75;1.80;61.60;;;;;;5074767;28;8846;-68
2021/12/23 07:44:30;;;;;;;;;173.75;154.25;1.70;62.20;;;;;;5075277;28;8761;-68
2021/12/23 07:46:58;;;;;;;;;168.75;144.50;1.90;62.00;;;;;;5075185;28;8827;-67
2021/12/23 07:49:24;;;;;;;;;144.50;135.25;2.20;61.20;;;;;;5075162;28;8984;-69
2021/12/23 07:51:50;;;;;;;;;177.50;156.75;2.50;60.00;;;;;;5075110;28;8765;-68
2021/12/23 07:54:16;;;;;;;;;156.25;142.00;2.40;60.90;;;;;;5074899;28;8776;-69
2021/12/23 07:56:42;;;;;;;;;170.00;151.75;2.20;61.10;;;;;;5074636;28;8765;-62
2021/12/23 07:59:08;;;;;;;;;158.00;147.75;2.20;61.90;;;;;;5074587;28;8776;-65
2021/12/23 08:01:34;;;;;;;;;166.00;151.50;2.40;60.90;;;;;;5074104;28;8800;-66
2021/12/23 08:03:59;;;;;;;;;159.25;145.75;2.40;61.10;;;;;;5074796;28;8791;-70
2021/12/23 08:06:26;;;;;;;;;155.75;139.50;2.20;61.90;;;;;;5074698;28;8772;-68
2021/12/23 08:08:52;;;;;;;;;151.25;141.50;2.30;61.70;;;;;;5075070;28;9442;-68
2021/12/23 08:11:18;;;;;;;;;142.00;127.50;2.60;60.50;;;;;;5074745;28;8830;-71
2021/12/23 08:13:44;;;;;;;;;148.50;130.25;2.50;61.20;;;;;;5074809;28;8760;-68
2021/12/23 08:16:09;;;;;;;;;146.25;132.75;2.70;60.70;;;;;;5074596;28;8784;-67
2021/12/23 08:18:35;;;;;;;;;143.50;127.75;2.90;59.80;;;;;;5073551;28;8862;-70
2021/12/23 08:21:01;;;;;;;;;134.25;123.00;2.90;59.50;;;;;;5074884;28;8903;-71
2021/12/23 08:23:27;;;;;;;;;110.00;98.25;3.20;58.70;;;;;;5074611;28;8780;-68
2021/12/23 08:25:54;;;;;;;;;143.50;123.25;3.40;57.10;;;;;;5074843;28;8791;-68
2021/12/23 08:28:21;;;;;;;;;125.50;117.25;3.30;56.70;;;;;;5074786;28;8764;-69
2021/12/23 08:30:47;;;;;;;;;131.75;118.50;2.60;58.90;;;;;;5074528;28;8791;-69
2021/12/23 08:33:12;;;;;;;;;146.25;130.50;2.70;59.70;;;;;;5074627;28;8772;-71
2021/12/23 08:35:38;;;;;;;;;153.25;138.25;2.40;61.00;;;;;;5074727;28;8780;-71
2021/12/23 08:38:05;;;;;;;;;118.25;110.50;2.20;63.50;;;;;;5074299;28;8849;-71
2021/12/23 08:40:32;;;;;;;;;154.75;129.00;2.30;62.60;;;;;;5074376;28;8797;-69
2021/12/23 08:42:58;;;;;;;;;144.75;130.25;2.70;61.90;;;;;;5074383;28;8783;-69
2021/12/23 08:45:26;;;;;;;;;140.25;120.00;2.50;62.90;;;;;;5074445;28;8788;-71
2021/12/23 08:47:54;;;;;;;;;127.00;107.25;2.30;63.90;;;;;;5074348;28;8772;-68
2021/12/23 08:50:21;;;;;;;;;149.50;123.25;2.30;64.60;;;;;;5074643;28;8808;-68
2021/12/23 08:52:48;;;;;;;;;129.75;115.00;2.10;65.50;;;;;;5074427;28;8776;-69
2021/12/23 08:55:14;;;;;;;;;123.75;113.00;2.10;64.90;;;;;;5074267;28;8784;-68
2021/12/23 08:57:41;;;;;;;;;126.75;112.00;2.10;64.90;;;;;;5074142;28;8791;-68
2021/12/23 09:00:11;;;;;;;;;116.00;110.25;2.30;64.60;;;;;;5074175;28;8891;-68
2021/12/23 09:02:37;;;;;;;;;127.75;113.25;2.60;63.10;;;;;;5074242;28;8849;-68
2021/12/23 09:05:05;;;;;;;;;121.25;110.75;2.50;62.10;;;;;;5074419;28;8803;-68
2021/12/23 09:07:30;;;;;;;;;121.50;112.50;2.30;63.00;;;;;;5073972;28;8822;-67
2021/12/23 09:09:56;;;;;;;;;111.75;103.50;2.30;63.00;;;;;;5074300;28;8913;-67
2021/12/23 09:12:22;;;;;;;;;108.00;97.25;2.60;62.50;;;;;;5076009;28;8764;-68
2021/12/23 09:14:49;;;;;;;;;109.00;96.75;3.00;60.30;;;;;;5078048;28;8799;-70
2021/12/23 09:17:15;;;;;;;;;120.50;108.75;3.20;60.30;;;;;;5077885;28;8773;-69
2021/12/23 09:19:41;;;;;;;;;126.75;114.00;3.20;59.90;;;;;;5078237;28;8839;-69
2021/12/23 09:22:09;;;;;;;;;114.25;104.75;3.20;58.70;;;;;;5077846;28;8788;-69
2021/12/23 09:24:37;;;;;;;;;111.00;98.25;2.90;61.00;;;;;;5077979;28;8759;-69
2021/12/23 09:35:01;;;;;;;;;123.00;114.00;3.20;60.00;;;;;;5075673;28;8744;-70
2021/12/23 09:37:28;;;;;;;;;110.75;99.50;3.10;60.80;;;;;;5077647;28;8864;-68
2021/12/23 09:39:57;;;;;;;;;115.75;107.25;3.40;60.20;;;;;;5076589;28;8803;-68
2021/12/23 09:42:27;;;;;;;;;121.00;114.50;3.50;58.60;;;;;;5076577;28;8741;-69
2021/12/23 09:44:59;;;;;;;;;147.75;132.50;3.70;58.10;;;;;;5076112;28;8741;-69
2021/12/23 09:47:31;;;;;;;;;128.00;119.25;3.30;59.30;;;;;;5076264;28;8760;-68
2021/12/23 09:50:00;;;;;;;;;110.75;96.50;3.20;59.50;;;;;;5075305;28;8789;-66
2021/12/23 09:52:31;;;;;;;;;145.75;127.00;3.10;60.10;;;;;;5076340;28;8784;-68
2021/12/23 09:55:00;;;;;;;;;148.25;138.75;2.60;61.30;;;;;;5073249;28;8803;-67
2021/12/23 09:57:26;;;;;;;;;166.25;149.75;2.80;61.20;;;;;;5076029;28;8749;-68
2021/12/23 09:59:54;;;;;;;;;141.25;122.00;2.70;62.00;;;;;;5075790;28;8885;-66
2021/12/23 10:02:20;;;;;;;;;144.50;127.00;2.70;62.30;;;;;;5075775;28;8790;-66
2021/12/23 10:04:45;;;;;;;;;138.75;122.50;2.80;61.60;;;;;;5076007;28;8871;-68
2021/12/23 10:07:12;;;;;;;;;148.00;131.75;2.80;61.20;;;;;;5075477;28;9676;-65
2021/12/23 10:31:47;;;;;;;;;112.75;99.50;3.00;60.90;;;;;;5076914;28;8748;-64
2021/12/23 10:37:15;;;;;;;;;134.75;119.50;3.20;60.70;;;;;;5076859;28;8753;-65
2021/12/23 10:39:44;;;;;;;;;139.25;124.50;3.40;60.40;;;;;;5076404;28;8768;-64
2021/12/23 10:42:26;;;;;;;;;132.25;127.50;3.70;60.10;;;;;;5076637;28;8768;-65
2021/12/23 10:44:59;;;;;;;;;141.50;131.00;3.70;60.80;;;;;;5076529;28;8792;-67
2021/12/23 10:47:49;;;;;;;;;135.00;127.75;3.60;60.60;;;;;;5076468;28;8783;-66
2021/12/23 10:50:18;;;;;;;;;142.50;136.00;3.40;62.60;;;;;;5076684;28;8800;-65
2021/12/23 10:52:57;;;;;;;;;148.00;133.25;3.50;61.90;;;;;;5075510;28;8839;-66
2021/12/23 11:00:29;;;;;;;;;137.75;125.75;4.20;59.60;;;;;;5074873;28;9486;-67
2021/12/23 11:03:25;;;;;;;;;132.00;117.50;3.90;60.80;;;;;;5074979;28;8757;-65
2021/12/23 11:06:26;;;;;;;;;138.25;127.75;4.00;60.60;;;;;;5074745;28;8760;-65
2021/12/23 11:11:48;;;;;;;;;148.75;136.00;3.70;60.50;;;;;;5075490;28;8748;-66
2021/12/23 11:36:17;;;;;;;;;129.50;119.75;3.20;62.70;;;;;;5074018;28;9682;-70
2021/12/23 11:41:32;;;;;;;;;136.00;126.25;3.40;62.30;;;;;;5075290;28;8838;-63
2021/12/23 11:44:00;;;;;;;;;143.00;129.25;3.40;62.60;;;;;;5075013;28;8845;-64
2021/12/23 11:46:41;;;;;;;;;120.75;109.75;3.80;61.90;;;;;;5075285;28;8772;-63
2021/12/23 11:49:09;;;;;;;;;138.25;119.00;4.00;61.10;;;;;;5075274;28;8828;-63
2021/12/23 11:54:18;;;;;;;;;133.75;121.50;4.20;59.80;;;;;;5075190;28;8749;-63
2021/12/23 11:56:50;;;;;;;;;137.00;127.25;4.30;59.80;;;;;;5074942;28;8733;-63
2021/12/23 11:59:17;;;;;;;;;130.50;119.00;4.10;60.50;;;;;;5075073;28;9423;-64
2021/12/23 12:01:53;;;;;;;;;129.50;117.00;4.40;59.30;;;;;;5075103;28;8927;-63
2021/12/23 12:04:27;;;;;;;;;146.75;130.75;4.60;58.40;;;;;;5073781;28;8780;-64
2021/12/23 12:06:55;;;;;;;;;139.25;128.25;4.60;58.50;;;;;;5074865;28;9577;-64
2021/12/23 12:09:31;;;;;;;;;122.25;116.50;4.60;58.40;;;;;;5068450;28;13548;-64
2021/12/23 12:11:59;;;;;;;;;148.00;127.25;4.70;58.00;;;;;;5071744;28;8759;-63
2021/12/23 12:14:40;;;;;;;;;138.25;127.00;4.90;57.20;;;;;;5071576;28;8864;-64
2021/12/23 12:17:26;;;;;;;;;140.25;128.75;4.70;58.40;;;;;;5071821;28;8783;-64
2021/12/23 12:20:21;;;;;;;;;130.75;123.25;4.50;59.00;;;;;;5071418;28;8786;-64
2021/12/23 12:23:19;;;;;;;;;132.75;121.25;4.50;59.80;;;;;;5071381;28;8798;-63
2021/12/23 12:25:53;;;;;;;;;118.75;112.00;4.90;58.30;;;;;;5071672;28;8782;-64
2021/12/23 12:28:28;;;;;;;;;133.50;118.75;5.00;57.30;;;;;;5071228;28;8803;-64
2021/12/23 12:31:20;;;;;;;;;125.75;113.25;4.90;57.70;;;;;;5071292;28;8774;-64
2021/12/23 12:33:59;;;;;;;;;120.00;106.50;4.80;58.40;;;;;;5071287;28;8771;-64
2021/12/23 12:36:26;;;;;;;;;129.25;116.75;4.60;60.00;;;;;;5071310;28;8873;-65
2021/12/23 12:39:16;;;;;;;;;102.00;87.25;4.60;60.60;;;;;;5069641;28;9530;-64
2021/12/23 12:41:43;;;;;;;;;111.75;104.50;4.70;59.80;;;;;;5071096;28;8889;-63
2021/12/23 12:44:31;;;;;;;;;121.25;108.50;4.60;60.00;;;;;;5071072;28;8805;-64
2021/12/23 12:47:10;;;;;;;;;105.25;91.50;4.70;59.80;;;;;;5070972;28;8775;-64
2021/12/23 12:49:40;;;;;;;;;117.50;104.75;4.40;61.00;;;;;;5071162;28;8877;-63
2021/12/23 12:52:17;;;;;;;;;119.50;104.50;4.40;60.80;;;;;;5071075;28;9469;-64
2021/12/23 12:54:51;;;;;;;;;111.75;105.00;4.40;61.20;;;;;;5065899;28;8767;-63
2021/12/23 12:57:19;;;;;;;;;104.75;94.50;4.70;60.50;;;;;;5067271;28;9412;-63
2021/12/23 12:59:49;;;;;;;;;130.75;118.50;4.60;60.60;;;;;;5066771;28;8762;-64
2021/12/23 13:02:32;;;;;;;;;128.25;117.00;4.70;60.50;;;;;;5069795;28;8763;-64
2021/12/23 13:05:06;;;;;;;;;135.00;122.25;5.20;58.70;;;;;;5070356;28;8770;-63
2021/12/23 13:07:36;;;;;;;;;134.25;121.00;4.90;58.60;;;;;;5074673;28;8833;-64
2021/12/23 13:10:08;;;;;;;;;95.50;85.50;4.60;60.30;;;;;;5090617;28;8762;-64
2021/12/23 13:12:51;;;;;;;;;123.50;107.75;4.70;60.50;;;;;;5090680;28;8778;-64
2021/12/23 13:15:20;;;;;;;;;116.00;112.25;5.00;59.80;;;;;;5090701;28;8800;-64
2021/12/23 13:17:49;;;;;;;;;120.00;104.50;5.00;59.70;;;;;;5088950;28;8818;-64
2021/12/23 13:20:17;;;;;;;;;132.25;127.25;5.10;59.00;;;;;;5066052;28;8880;-63
2021/12/23 13:22:44;;;;;;;;;142.25;127.75;5.20;58.70;;;;;;5065884;28;8768;-63
2021/12/23 13:25:10;;;;;;;;;119.25;111.00;5.10;59.20;;;;;;5059453;28;9500;-64
2021/12/23 13:27:43;;;;;;;;;136.25;126.00;5.30;58.40;;;;;;5068293;28;8841;-64
2021/12/23 13:30:12;;;;;;;;;129.75;116.75;5.30;58.60;;;;;;5070009;28;9463;-64
2021/12/23 13:32:38;;;;;;;;;137.50;132.50;5.30;58.20;;;;;;5076740;28;8882;-64
2021/12/23 13:35:13;;;;;;;;;136.25;131.00;5.70;57.30;;;;;;5069074;28;9440;-64
2021/12/23 13:37:43;;;;;;;;;124.75;121.75;5.50;57.60;;;;;;5076294;28;8806;-65
2021/12/23 13:40:09;;;;;;;;;125.50;121.75;5.50;57.50;;;;;;5076586;28;8859;-64
2021/12/23 13:42:39;;;;;;;;;118.50;117.75;5.50;57.10;;;;;;5058963;28;8766;-64
2021/12/23 13:45:06;;;;;;;;;124.50;115.25;5.20;57.50;;;;;;5076539;28;8770;-64
2021/12/23 13:47:34;;;;;;;;;126.25;114.25;5.20;58.00;;;;;;5076769;28;8798;-64
2021/12/23 13:50:00;;;;;;;;;130.25;125.75;5.00;58.70;;;;;;5074519;28;8824;-64
2021/12/23 13:52:31;;;;;;;;;139.25;134.00;5.30;57.70;;;;;;5056719;28;9410;-64
2021/12/23 13:55:05;;;;;;;;;152.25;142.50;5.40;57.60;;;;;;5068522;28;8786;-64
2021/12/23 13:57:35;;;;;;;;;151.75;133.25;5.30;57.70;;;;;;5073668;28;8892;-64